Time;durP1;ratioP1;P1;durP2;ratioP2;P2;SDS_P1;SDS_P2;PMS_P1;PMS_P2;Temp;Humidity;BMP_temperature;BMP_pressure;BME280_temperature;BME280_humidity;BME280_pressure;Samples;Min_cycle;Max_cycle;Signal;HPM_P1;HPM_P2
2022/07/16 00:03:18;;;;;;;3.20;1.50;;;20.60;48.70;;;;;;5003040;28;20041;-45
2022/07/16 00:05:44;;;;;;;3.42;1.55;;;20.60;48.80;;;;;;5005324;28;20022;-45
2022/07/16 00:08:10;;;;;;;3.75;1.83;;;20.60;49.00;;;;;;5005791;28;20097;-46
2022/07/16 00:10:35;;;;;;;3.10;1.60;;;20.60;48.80;;;;;;5004734;28;20021;-45
2022/07/16 00:13:02;;;;;;;4.38;1.85;;;20.60;48.80;;;;;;5006235;28;20032;-45
2022/07/16 00:15:29;;;;;;;3.10;1.40;;;20.50;48.90;;;;;;5005151;28;20034;-45
2022/07/16 00:19:15;;;;;;;3.55;1.63;;;20.50;49.10;;;;;;5005346;28;20025;-45
2022/07/16 00:20:41;;;;;;;5.68;1.83;;;20.50;49.10;;;;;;5005986;28;20032;-47
2022/07/16 00:23:07;;;;;;;2.88;1.30;;;20.50;49.00;;;;;;5005626;28;20030;-48
2022/07/16 00:25:34;;;;;;;4.55;1.67;;;20.50;49.10;;;;;;5005862;28;20034;-48
2022/07/16 00:28:00;;;;;;;3.15;1.75;;;20.40;49.10;;;;;;5025755;28;20061;-46
2022/07/16 00:30:26;;;;;;;3.33;1.55;;;20.40;49.10;;;;;;5025472;28;20065;-47
2022/07/16 00:32:51;;;;;;;3.58;1.75;;;20.40;49.20;;;;;;5024381;28;20041;-48
2022/07/16 00:35:17;;;;;;;3.60;1.65;;;20.40;49.20;;;;;;5005408;28;20473;-48
2022/07/16 00:37:43;;;;;;;3.42;1.70;;;20.30;49.00;;;;;;5005893;28;20641;-47
2022/07/16 00:40:09;;;;;;;2.97;1.60;;;20.30;49.20;;;;;;5005399;28;20029;-46
2022/07/16 00:42:34;;;;;;;3.42;1.40;;;20.30;49.30;;;;;;5006374;28;20056;-47
2022/07/16 00:45:00;;;;;;;2.53;1.23;;;20.30;49.20;;;;;;5005451;28;20041;-47
2022/07/16 00:47:25;;;;;;;5.22;2.00;;;20.30;49.30;;;;;;5005494;28;20760;-48
2022/07/16 00:49:51;;;;;;;2.92;1.83;;;20.30;49.30;;;;;;5005650;28;20469;-49
2022/07/16 00:52:17;;;;;;;3.97;1.50;;;20.30;49.40;;;;;;5005642;28;20018;-47
2022/07/16 00:54:42;;;;;;;3.20;1.60;;;20.20;49.00;;;;;;5006046;28;20586;-47
2022/07/16 00:57:08;;;;;;;3.17;1.63;;;20.20;49.10;;;;;;5004800;28;20092;-47
2022/07/16 00:59:34;;;;;;;2.95;1.60;;;20.20;49.40;;;;;;5005524;28;20022;-48
2022/07/16 01:01:59;;;;;;;3.50;1.67;;;20.10;49.50;;;;;;5005384;28;20881;-47
2022/07/16 01:04:25;;;;;;;2.63;1.52;;;20.10;49.60;;;;;;5004861;28;20486;-48
2022/07/16 01:06:51;;;;;;;4.03;1.55;;;20.10;49.60;;;;;;5004985;28;20026;-47
2022/07/16 01:09:17;;;;;;;3.53;1.70;;;20.10;49.30;;;;;;5004873;28;20032;-48
2022/07/16 01:11:47;;;;;;;4.05;1.40;;;20.10;49.50;;;;;;5005468;28;20056;-47
2022/07/16 01:14:15;;;;;;;3.53;1.30;;;20.10;49.40;;;;;;5005125;28;20022;-47
2022/07/16 01:16:41;;;;;;;3.97;1.65;;;20.10;49.20;;;;;;5005053;28;20037;-49
2022/07/16 01:19:08;;;;;;;3.47;1.70;;;20.10;49.10;;;;;;5004835;28;20610;-49
2022/07/16 01:21:34;;;;;;;3.53;1.98;;;20.10;49.30;;;;;;5004900;28;20033;-45
2022/07/16 01:24:00;;;;;;;2.85;1.30;;;20.00;49.10;;;;;;5005499;28;20018;-47
2022/07/16 01:26:25;;;;;;;4.55;2.20;;;20.00;49.00;;;;;;5004074;28;20038;-47
2022/07/16 01:28:51;;;;;;;3.10;1.80;;;20.00;49.30;;;;;;5004978;28;20022;-48
2022/07/16 01:31:16;;;;;;;2.75;1.20;;;20.00;49.30;;;;;;5004973;28;20029;-46
2022/07/16 01:33:43;;;;;;;4.07;1.67;;;20.00;49.40;;;;;;5004343;28;20042;-47
2022/07/16 01:36:14;;;;;;;2.97;1.83;;;20.00;49.10;;;;;;4986643;28;20799;-46
2022/07/16 01:38:42;;;;;;;3.15;1.58;;;20.00;49.20;;;;;;5004938;28;20109;-49
2022/07/16 01:41:09;;;;;;;2.63;1.30;;;20.00;49.20;;;;;;5003850;28;20037;-46
2022/07/16 01:43:35;;;;;;;2.90;1.50;;;19.90;49.50;;;;;;5005148;28;20029;-46
2022/07/16 01:46:01;;;;;;;4.18;1.80;;;19.90;49.50;;;;;;5004625;28;20121;-46
2022/07/16 01:48:27;;;;;;;3.90;1.90;;;19.90;49.10;;;;;;5005089;28;20029;-47
2022/07/16 01:50:53;;;;;;;3.08;1.50;;;19.90;49.10;;;;;;5004457;28;20033;-47
2022/07/16 01:53:19;;;;;;;3.35;1.65;;;19.90;49.00;;;;;;5004618;28;20052;-48
2022/07/16 01:55:45;;;;;;;4.68;1.73;;;19.90;49.40;;;;;;5003874;28;20670;-47
2022/07/16 01:58:12;;;;;;;3.08;1.55;;;19.80;49.40;;;;;;5004892;28;20218;-48
2022/07/16 02:00:40;;;;;;;2.78;1.40;;;19.80;49.50;;;;;;5004397;28;20135;-48
2022/07/16 02:03:07;;;;;;;2.85;1.58;;;19.80;49.70;;;;;;5004192;28;20026;-45
2022/07/16 02:05:33;;;;;;;2.90;1.40;;;19.80;49.70;;;;;;5004484;28;20034;-48
2022/07/16 02:07:59;;;;;;;3.38;1.40;;;19.80;49.70;;;;;;5004067;28;20486;-48
2022/07/16 02:10:24;;;;;;;3.28;1.60;;;19.80;49.30;;;;;;5005032;28;20110;-47
2022/07/16 02:12:50;;;;;;;3.67;1.73;;;19.70;49.40;;;;;;5004448;28;20032;-49
2022/07/16 02:15:16;;;;;;;2.55;1.20;;;19.70;49.60;;;;;;5003987;28;20091;-47
2022/07/16 02:17:42;;;;;;;3.90;1.73;;;19.70;49.70;;;;;;5003592;28;20026;-45
2022/07/16 02:20:09;;;;;;;3.22;1.67;;;19.70;49.90;;;;;;5003964;28;20442;-47
2022/07/16 02:22:35;;;;;;;3.58;1.70;;;19.70;49.90;;;;;;5036436;28;20518;-49
2022/07/16 02:25:04;;;;;;;3.17;1.70;;;19.70;49.80;;;;;;5004002;28;20064;-48
2022/07/16 02:27:30;;;;;;;3.22;1.52;;;19.70;50.40;;;;;;5019797;28;20053;-47
2022/07/16 02:29:56;;;;;;;3.70;1.60;;;19.70;49.70;;;;;;5023307;28;20060;-48
2022/07/16 02:32:21;;;;;;;4.28;1.80;;;19.70;49.80;;;;;;5023408;28;20026;-46
2022/07/16 02:34:48;;;;;;;3.90;1.60;;;19.60;50.10;;;;;;5009523;28;20041;-48
2022/07/16 02:37:14;;;;;;;3.20;1.63;;;19.60;50.10;;;;;;5002134;28;20034;-48
2022/07/16 02:39:40;;;;;;;4.13;1.48;;;19.60;50.10;;;;;;5004351;28;20160;-46
2022/07/16 02:42:06;;;;;;;2.55;1.63;;;19.60;49.90;;;;;;5003875;28;20490;-49
2022/07/16 02:44:32;;;;;;;2.67;1.20;;;19.60;49.90;;;;;;5004321;28;20069;-48
2022/07/16 02:46:57;;;;;;;2.60;1.45;;;19.60;50.10;;;;;;5004061;28;20117;-48
2022/07/16 02:49:23;;;;;;;4.28;1.77;;;19.60;50.00;;;;;;5003378;28;20944;-47
2022/07/16 02:51:49;;;;;;;3.97;1.63;;;19.60;49.90;;;;;;5003556;28;20030;-48
2022/07/16 02:54:14;;;;;;;3.88;2.05;;;19.50;49.90;;;;;;5017192;28;20030;-46
2022/07/16 02:56:40;;;;;;;3.13;1.48;;;19.60;50.00;;;;;;5015366;28;20559;-49
2022/07/16 02:59:06;;;;;;;5.43;1.67;;;19.50;50.20;;;;;;5015661;28;20052;-49
2022/07/16 03:01:31;;;;;;;5.65;1.90;;;19.50;50.40;;;;;;5023264;28;20528;-50
2022/07/16 03:03:57;;;;;;;2.47;1.30;;;19.50;50.30;;;;;;5016803;28;20156;-49
2022/07/16 03:06:23;;;;;;;4.63;1.70;;;19.50;50.40;;;;;;5002930;28;20029;-46
2022/07/16 03:08:48;;;;;;;2.83;1.50;;;19.50;50.20;;;;;;5003714;28;20029;-47
2022/07/16 03:11:16;;;;;;;4.07;1.58;;;19.50;50.20;;;;;;5004044;28;20496;-46
2022/07/16 03:13:41;;;;;;;2.42;1.42;;;19.50;50.30;;;;;;5003763;28;20026;-46
2022/07/16 03:16:07;;;;;;;3.70;1.52;;;19.50;50.40;;;;;;5003626;28;20037;-47
2022/07/16 03:18:33;;;;;;;3.47;1.52;;;19.40;50.20;;;;;;5003273;28;20335;-47
2022/07/16 03:20:59;;;;;;;3.13;1.77;;;19.40;50.20;;;;;;5003604;28;20490;-49
2022/07/16 03:23:24;;;;;;;5.22;2.00;;;19.40;50.20;;;;;;5003253;28;20128;-47
2022/07/16 03:25:50;;;;;;;3.13;1.60;;;19.40;49.90;;;;;;5003314;28;20702;-48
2022/07/16 03:28:16;;;;;;;3.22;1.60;;;19.30;50.30;;;;;;5004033;28;20026;-47
2022/07/16 03:30:41;;;;;;;2.85;1.42;;;19.30;50.30;;;;;;5003441;28;20026;-46
2022/07/16 03:33:07;;;;;;;3.72;1.75;;;19.30;50.90;;;;;;5003729;28;20084;-50
2022/07/16 03:35:33;;;;;;;3.17;1.52;;;19.30;50.30;;;;;;5003034;28;20044;-46
2022/07/16 03:40:43;;;;;;;3.78;1.63;;;19.40;50.40;;;;;;5006949;28;20030;-46
2022/07/16 03:43:08;;;;;;;3.45;1.40;;;19.40;50.30;;;;;;5007941;28;20030;-47
2022/07/16 03:45:34;;;;;;;4.90;1.45;;;19.40;50.30;;;;;;5007189;28;20116;-46
2022/07/16 03:48:00;;;;;;;3.22;1.50;;;19.40;50.30;;;;;;5038733;28;20062;-47
2022/07/16 03:50:26;;;;;;;4.03;1.70;;;19.30;50.50;;;;;;5038491;28;20156;-49
2022/07/16 03:52:51;;;;;;;3.17;1.50;;;19.40;50.70;;;;;;5006796;28;20030;-45
2022/07/16 03:55:17;;;;;;;3.42;1.70;;;19.40;50.80;;;;;;5007119;28;20029;-47
2022/07/16 03:57:43;;;;;;;3.17;1.65;;;19.30;50.70;;;;;;5009607;28;20625;-49
2022/07/16 04:00:10;;;;;;;3.03;1.58;;;19.30;50.70;;;;;;5026912;28;20061;-47
2022/07/16 04:02:36;;;;;;;4.30;1.55;;;19.30;50.90;;;;;;5026746;28;20029;-47
2022/07/16 04:05:02;;;;;;;2.95;1.60;;;19.30;50.80;;;;;;5011148;28;20149;-47
2022/07/16 04:07:28;;;;;;;2.75;1.63;;;19.30;51.00;;;;;;5006686;28;20109;-48
2022/07/16 04:09:53;;;;;;;2.20;1.30;;;19.30;51.00;;;;;;5006575;28;20041;-49
2022/07/16 04:12:22;;;;;;;3.75;1.70;;;19.30;51.00;;;;;;5006996;28;20497;-46
2022/07/16 04:14:49;;;;;;;2.85;1.35;;;19.30;50.80;;;;;;5006891;28;20030;-46
2022/07/16 04:17:14;;;;;;;3.00;1.65;;;19.30;51.00;;;;;;5006315;28;20030;-50
2022/07/16 04:19:40;;;;;;;2.22;1.33;;;19.20;51.20;;;;;;5006216;28;20100;-47
2022/07/16 04:22:06;;;;;;;2.72;1.30;;;19.20;51.20;;;;;;5006092;28;20367;-47
2022/07/16 04:24:31;;;;;;;3.72;1.85;;;19.20;51.20;;;;;;5006593;28;20032;-48
2022/07/16 04:26:57;;;;;;;2.80;1.38;;;19.20;51.30;;;;;;5005336;28;20022;-48
2022/07/16 04:29:22;;;;;;;3.20;1.70;;;19.20;51.50;;;;;;5021361;28;20030;-49
2022/07/16 04:31:48;;;;;;;3.00;1.70;;;19.20;51.60;;;;;;5025891;28;20099;-45
2022/07/16 04:34:14;;;;;;;3.00;1.20;;;19.20;51.50;;;;;;5017867;28;20515;-47
2022/07/16 04:36:39;;;;;;;2.58;1.63;;;19.20;51.50;;;;;;5006671;28;20104;-48
2022/07/16 04:39:05;;;;;;;3.38;1.83;;;19.20;51.50;;;;;;5005622;28;20556;-48
2022/07/16 04:41:31;;;;;;;4.18;1.75;;;19.20;51.50;;;;;;5021640;28;20230;-46
2022/07/16 04:43:56;;;;;;;4.20;1.80;;;19.20;51.50;;;;;;5006518;28;20593;-47
2022/07/16 04:46:22;;;;;;;3.22;1.83;;;19.20;52.00;;;;;;5005400;28;20458;-45
2022/07/16 04:48:48;;;;;;;2.97;1.70;;;19.20;52.30;;;;;;5005990;28;20153;-49
2022/07/16 04:51:13;;;;;;;3.95;1.83;;;19.10;53.10;;;;;;5005502;28;20053;-47
2022/07/16 04:53:39;;;;;;;3.30;1.85;;;19.20;53.60;;;;;;5032757;28;20057;-48
2022/07/16 04:56:05;;;;;;;3.97;1.98;;;19.20;53.60;;;;;;5005112;28;20030;-48
2022/07/16 04:58:31;;;;;;;3.55;1.55;;;19.20;53.70;;;;;;5003770;28;20144;-48
2022/07/16 05:00:56;;;;;;;3.33;1.67;;;19.10;53.40;;;;;;5003983;28;20026;-48
2022/07/16 05:03:23;;;;;;;3.08;1.70;;;19.10;53.50;;;;;;5004674;28;20044;-46
2022/07/16 05:05:49;;;;;;;3.30;1.70;;;19.10;53.90;;;;;;5005467;28;20037;-49
2022/07/16 05:08:15;;;;;;;3.95;1.95;;;19.10;54.00;;;;;;5004577;28;20113;-49
2022/07/16 05:10:41;;;;;;;3.55;2.22;;;19.10;54.20;;;;;;5005490;28;20447;-48
2022/07/16 05:13:07;;;;;;;3.85;1.95;;;19.10;54.30;;;;;;5005721;28;20033;-45
2022/07/16 05:15:33;;;;;;;3.72;2.00;;;19.10;54.80;;;;;;5004897;28;20030;-44
2022/07/16 05:17:59;;;;;;;4.97;2.42;;;19.10;55.30;;;;;;5005753;28;20041;-45
2022/07/16 05:20:25;;;;;;;4.43;2.33;;;19.10;55.40;;;;;;5004739;28;20088;-45
2022/07/16 05:22:51;;;;;;;3.67;2.17;;;19.10;55.70;;;;;;5005192;28;20371;-45
2022/07/16 05:25:17;;;;;;;4.00;2.20;;;19.10;55.70;;;;;;5004993;28;20033;-45
2022/07/16 05:27:42;;;;;;;3.75;1.92;;;19.10;55.70;;;;;;5005547;28;20038;-45
2022/07/16 05:30:11;;;;;;;4.25;2.47;;;19.10;55.50;;;;;;5005157;28;20018;-44
2022/07/16 05:32:37;;;;;;;3.38;2.00;;;19.20;55.80;;;;;;5004693;28;20066;-45
2022/07/16 05:35:03;;;;;;;4.53;2.47;;;19.10;56.10;;;;;;5004393;28;20160;-45
2022/07/16 05:37:29;;;;;;;3.35;2.05;;;19.10;56.30;;;;;;5004844;28;20029;-45
2022/07/16 05:39:55;;;;;;;3.30;2.03;;;19.20;56.30;;;;;;5005280;28;20565;-45
2022/07/16 05:42:20;;;;;;;5.35;2.70;;;19.20;56.50;;;;;;5004798;28;20513;-45
2022/07/16 05:44:46;;;;;;;4.53;1.95;;;19.10;56.70;;;;;;5020502;28;20105;-45
2022/07/16 05:47:12;;;;;;;4.72;2.28;;;19.20;56.70;;;;;;5036594;28;20026;-45
2022/07/16 05:49:37;;;;;;;4.13;2.35;;;19.20;56.40;;;;;;5004227;28;20022;-45
2022/07/16 05:52:03;;;;;;;7.45;2.75;;;19.20;56.20;;;;;;5004598;28;20029;-45
2022/07/16 05:54:29;;;;;;;3.88;2.17;;;19.20;55.80;;;;;;5004464;28;20022;-45
2022/07/16 05:56:55;;;;;;;3.58;2.20;;;19.20;56.00;;;;;;4998214;28;20076;-45
2022/07/16 05:59:20;;;;;;;4.07;2.00;;;19.20;56.40;;;;;;4992810;28;20479;-45
2022/07/16 06:01:46;;;;;;;4.88;2.42;;;19.20;55.90;;;;;;4994425;28;20037;-46
2022/07/16 06:04:11;;;;;;;4.28;2.55;;;19.30;55.50;;;;;;4995232;28;20033;-45
2022/07/16 06:06:37;;;;;;;4.22;2.75;;;19.30;55.20;;;;;;4993620;28;20630;-45
2022/07/16 06:09:03;;;;;;;3.72;2.00;;;19.30;54.70;;;;;;4996095;28;20038;-45
2022/07/16 06:11:29;;;;;;;4.15;2.00;;;19.30;53.00;;;;;;4984731;28;20398;-45
2022/07/16 06:13:54;;;;;;;4.38;2.45;;;19.30;54.10;;;;;;4984567;28;20434;-45
2022/07/16 06:16:22;;;;;;;5.28;2.95;;;19.30;54.40;;;;;;4987753;28;20044;-44
2022/07/16 06:18:48;;;;;;;3.90;2.42;;;19.30;54.60;;;;;;4998962;28;20026;-43
2022/07/16 06:21:14;;;;;;;5.45;2.30;;;19.30;54.40;;;;;;5003880;28;20264;-44
2022/07/16 06:23:39;;;;;;;4.63;2.70;;;19.30;54.90;;;;;;5002722;28;20026;-44
2022/07/16 06:26:05;;;;;;;4.10;2.20;;;19.40;55.60;;;;;;5003222;28;20262;-44
2022/07/16 06:28:31;;;;;;;4.55;2.30;;;19.50;55.60;;;;;;4998392;28;20026;-46
2022/07/16 06:30:56;;;;;;;3.78;2.10;;;19.60;55.50;;;;;;5002867;28;20022;-45
2022/07/16 06:33:22;;;;;;;4.97;2.60;;;19.70;55.60;;;;;;5000900;28;20056;-45
2022/07/16 06:35:48;;;;;;;4.60;2.15;;;19.90;54.90;;;;;;5000252;28;20033;-45
2022/07/16 06:38:13;;;;;;;4.70;2.85;;;20.00;54.30;;;;;;5002725;28;20033;-46
2022/07/16 06:40:44;;;;;;;4.72;2.47;;;20.20;54.00;;;;;;5002373;28;20089;-45
2022/07/16 06:43:10;;;;;;;4.03;2.10;;;20.30;53.80;;;;;;5001968;28;20104;-45
2022/07/16 06:45:36;;;;;;;4.75;2.30;;;20.40;53.40;;;;;;5003726;28;20498;-45
2022/07/16 06:48:02;;;;;;;6.05;2.35;;;20.60;53.30;;;;;;4987957;28;20093;-45
2022/07/16 06:50:27;;;;;;;5.95;2.50;;;20.60;53.10;;;;;;4994822;28;20121;-45
2022/07/16 06:52:53;;;;;;;4.32;2.53;;;20.80;53.00;;;;;;4996807;28;20022;-46
2022/07/16 06:55:19;;;;;;;3.92;2.35;;;20.80;52.80;;;;;;4997182;28;20018;-45
2022/07/16 06:57:45;;;;;;;4.82;2.38;;;20.90;52.70;;;;;;4997094;28;20036;-46
2022/07/16 07:00:11;;;;;;;4.57;2.40;;;21.00;52.40;;;;;;5000383;28;20033;-45
2022/07/16 07:02:37;;;;;;;3.65;2.15;;;21.10;52.30;;;;;;5002597;28;20044;-46
2022/07/16 07:05:04;;;;;;;3.88;2.05;;;21.20;52.10;;;;;;4999974;28;20038;-46
2022/07/16 07:07:29;;;;;;;5.10;2.25;;;21.20;51.80;;;;;;5003361;28;20029;-46
2022/07/16 07:09:55;;;;;;;4.80;2.25;;;21.40;51.60;;;;;;5002945;28;20433;-46
2022/07/16 07:12:21;;;;;;;4.35;1.92;;;21.40;51.60;;;;;;5002706;28;20498;-46
2022/07/16 07:14:46;;;;;;;4.78;2.63;;;21.50;51.70;;;;;;5003193;28;20026;-45
2022/07/16 07:17:12;;;;;;;3.92;2.20;;;21.50;51.70;;;;;;5003279;28;20041;-45
2022/07/16 07:19:37;;;;;;;3.50;2.03;;;21.60;51.60;;;;;;5002875;28;20035;-45
2022/07/16 07:22:03;;;;;;;3.15;1.73;;;21.60;51.60;;;;;;5034408;28;20081;-46
2022/07/16 07:24:29;;;;;;;4.13;2.03;;;21.70;51.50;;;;;;5003856;28;20056;-46
2022/07/16 07:26:54;;;;;;;3.83;2.13;;;21.70;51.50;;;;;;5020568;28;20029;-46
2022/07/16 07:29:20;;;;;;;3.15;1.63;;;21.80;51.30;;;;;;5021776;28;20481;-46
2022/07/16 07:31:46;;;;;;;4.70;2.00;;;21.90;51.40;;;;;;5022689;28;20481;-46
2022/07/16 07:34:11;;;;;;;3.25;2.00;;;21.90;51.20;;;;;;5004438;28;20421;-46
2022/07/16 07:36:37;;;;;;;3.70;1.90;;;22.00;51.10;;;;;;5002985;28;20524;-46
2022/07/16 07:39:03;;;;;;;3.25;1.88;;;22.00;51.00;;;;;;5000950;28;20270;-46
2022/07/16 07:41:28;;;;;;;4.03;1.63;;;22.10;50.90;;;;;;5002827;28;20050;-46
2022/07/16 07:43:54;;;;;;;3.38;1.90;;;22.10;50.90;;;;;;5002896;28;20101;-46
2022/07/16 07:46:20;;;;;;;3.13;1.60;;;22.10;50.80;;;;;;5002085;28;20030;-46
2022/07/16 07:48:46;;;;;;;4.90;1.70;;;22.20;50.70;;;;;;5004304;28;20081;-46
2022/07/16 07:51:12;;;;;;;3.28;1.75;;;22.20;50.60;;;;;;5009595;28;20081;-45
2022/07/16 07:53:38;;;;;;;3.20;1.33;;;22.20;50.60;;;;;;5022844;28;20029;-46
2022/07/16 07:56:04;;;;;;;3.17;1.67;;;22.30;50.60;;;;;;5018711;28;20030;-46
2022/07/16 07:58:30;;;;;;;4.93;1.73;;;22.40;50.50;;;;;;5000990;28;20061;-46
2022/07/16 08:00:55;;;;;;;3.45;1.70;;;22.40;50.50;;;;;;5002483;28;20413;-46
2022/07/16 08:03:21;;;;;;;2.47;1.42;;;22.40;50.40;;;;;;5002526;28;20053;-46
2022/07/16 08:05:47;;;;;;;2.97;1.67;;;22.50;50.40;;;;;;5002283;28;20026;-48
2022/07/16 08:08:13;;;;;;;3.60;2.00;;;22.50;50.40;;;;;;5001330;28;20255;-46
2022/07/16 08:10:39;;;;;;;2.92;1.67;;;22.50;50.40;;;;;;5001924;28;20088;-46
2022/07/16 08:13:05;;;;;;;2.90;1.40;;;22.50;50.30;;;;;;5002764;28;20032;-46
2022/07/16 08:15:31;;;;;;;3.47;1.77;;;22.50;50.20;;;;;;4998375;28;20070;-46
2022/07/16 08:17:57;;;;;;;5.75;1.70;;;22.60;49.90;;;;;;4998106;28;20557;-45
2022/07/16 08:20:23;;;;;;;6.47;2.40;;;22.60;49.80;;;;;;5000254;28;20038;-45
2022/07/16 08:22:49;;;;;;;7.97;2.17;;;22.60;49.50;;;;;;5000166;28;20118;-46
2022/07/16 08:27:59;;;;;;;8.10;2.88;;;22.70;49.20;;;;;;5005182;28;20080;-46
2022/07/16 08:30:25;;;;;;;10.70;3.15;;;22.70;49.10;;;;;;5005357;28;20025;-45
2022/07/16 08:32:51;;;;;;;11.77;3.13;;;22.70;49.20;;;;;;5003035;28;20080;-46
2022/07/16 08:35:17;;;;;;;7.75;2.60;;;22.70;49.50;;;;;;5003757;28;20026;-45
2022/07/16 08:37:45;;;;;;;5.28;2.50;;;22.80;49.20;;;;;;5003547;28;20018;-46
2022/07/16 08:40:16;;;;;;;7.63;2.80;;;22.80;48.90;;;;;;5005234;28;20476;-46
2022/07/16 08:42:43;;;;;;;6.65;2.50;;;22.80;48.70;;;;;;5005786;28;20041;-46
2022/07/16 08:45:10;;;;;;;5.85;2.30;;;22.80;48.60;;;;;;5004700;28;20026;-46
2022/07/16 08:47:37;;;;;;;12.43;2.78;;;22.90;48.70;;;;;;5005621;28;20053;-46
2022/07/16 08:50:08;;;;;;;6.40;2.38;;;22.90;48.60;;;;;;5006188;28;20029;-46
2022/07/16 08:52:38;;;;;;;5.63;2.05;;;22.90;48.70;;;;;;5006666;28;20014;-46
2022/07/16 08:55:04;;;;;;;6.30;2.45;;;22.90;48.70;;;;;;5025146;28;20551;-46
2022/07/16 08:57:31;;;;;;;6.38;2.00;;;23.00;48.70;;;;;;5010032;28;20038;-46
2022/07/16 08:59:57;;;;;;;7.28;2.05;;;23.00;48.70;;;;;;5005687;28;20140;-46
2022/07/16 09:02:22;;;;;;;5.25;2.28;;;23.00;48.80;;;;;;5005003;28;20589;-46
2022/07/16 09:04:48;;;;;;;6.93;2.55;;;23.00;48.80;;;;;;5005917;28;20042;-46
2022/07/16 09:07:15;;;;;;;5.63;2.50;;;23.00;48.90;;;;;;5005214;28;20041;-47
2022/07/16 09:09:42;;;;;;;7.57;2.70;;;23.10;49.00;;;;;;5005932;28;20026;-46
2022/07/16 09:12:07;;;;;;;7.72;2.75;;;23.10;49.60;;;;;;4996462;28;20014;-46
2022/07/16 09:14:33;;;;;;;7.13;2.55;;;23.10;50.80;;;;;;5005208;28;20034;-46
2022/07/16 09:17:00;;;;;;;5.85;3.08;;;23.20;50.50;;;;;;5005124;28;20094;-46
2022/07/16 09:19:28;;;;;;;8.07;3.35;;;23.20;51.90;;;;;;5005225;28;20025;-45
2022/07/16 09:22:07;;;;;;;4.50;2.42;;;23.20;52.30;;;;;;5052680;28;20067;-46
2022/07/16 09:24:36;;;;;;;7.50;2.40;;;23.20;52.70;;;;;;5024849;28;20100;-46
2022/07/16 09:27:23;;;;;;;9.43;2.90;;;23.20;53.20;;;;;;5024863;28;20030;-46
2022/07/16 09:29:58;;;;;;;5.93;2.28;;;23.30;53.30;;;;;;5008576;28;20026;-52
2022/07/16 09:32:39;;;;;;;4.32;2.35;;;23.30;50.20;;;;;;5003965;28;20025;-46
2022/07/16 09:35:16;;;;;;;5.63;2.60;;;23.30;49.10;;;;;;4997756;28;20037;-47
2022/07/16 09:37:56;;;;;;;4.35;2.33;;;23.40;48.20;;;;;;5016233;28;20025;-46
2022/07/16 09:40:36;;;;;;;5.22;2.25;;;23.40;47.80;;;;;;4998482;28;20112;-47
2022/07/16 09:43:15;;;;;;;4.22;2.03;;;23.40;48.10;;;;;;4999893;28;20026;-44
2022/07/16 09:45:43;;;;;;;4.32;2.45;;;23.40;45.90;;;;;;5002876;28;20568;-44
2022/07/16 09:48:35;;;;;;;4.18;2.38;;;23.40;44.30;;;;;;5003333;28;20025;-46
2022/07/16 09:51:16;;;;;;;6.63;3.08;;;23.40;46.20;;;;;;5013087;28;20525;-44
2022/07/16 09:53:43;;;;;;;7.85;3.85;;;23.40;45.80;;;;;;5022502;28;20022;-45
2022/07/16 09:56:12;;;;;;;5.93;3.13;;;23.40;47.60;;;;;;5004461;28;20060;-44
2022/07/16 09:58:37;;;;;;;5.72;2.50;;;23.50;49.30;;;;;;5004245;28;20036;-45
2022/07/16 10:01:05;;;;;;;5.72;2.75;;;23.50;48.00;;;;;;5002421;28;20518;-44
2022/07/16 10:03:31;;;;;;;5.07;2.33;;;23.60;48.20;;;;;;5004381;28;20088;-44
2022/07/16 10:05:57;;;;;;;4.97;2.40;;;23.50;47.10;;;;;;5004365;28;20042;-44
2022/07/16 10:08:24;;;;;;;4.30;2.38;;;23.60;46.90;;;;;;5004994;28;20043;-44
2022/07/16 10:10:50;;;;;;;5.10;2.30;;;23.60;47.90;;;;;;5031763;28;20018;-44
2022/07/16 10:13:18;;;;;;;3.33;1.75;;;23.60;45.90;;;;;;4984036;28;20041;-44
2022/07/16 10:15:46;;;;;;;3.35;2.00;;;23.60;46.00;;;;;;4984363;28;20023;-44
2022/07/16 10:18:30;;;;;;;4.10;1.85;;;23.70;45.60;;;;;;4984221;28;20037;-45
2022/07/16 10:21:08;;;;;;;3.53;2.00;;;23.70;46.00;;;;;;4997002;28;20271;-44
2022/07/16 10:23:36;;;;;;;4.35;2.15;;;23.70;45.70;;;;;;5003201;28;20050;-44
2022/07/16 10:26:08;;;;;;;3.25;1.83;;;23.70;44.80;;;;;;5003399;28;20486;-44
2022/07/16 10:28:47;;;;;;;4.60;2.00;;;23.70;45.70;;;;;;5002841;28;20034;-44
2022/07/16 10:31:31;;;;;;;4.88;2.05;;;23.70;46.00;;;;;;5003386;28;20033;-44
2022/07/16 10:34:15;;;;;;;4.70;2.00;;;23.70;46.70;;;;;;5003696;28;20378;-44
2022/07/16 10:36:49;;;;;;;3.97;2.00;;;23.80;46.90;;;;;;5003613;28;20037;-44
2022/07/16 10:39:15;;;;;;;5.15;2.85;;;23.80;46.30;;;;;;5002968;28;20028;-45
2022/07/16 10:41:51;;;;;;;4.72;2.42;;;23.80;46.10;;;;;;5002658;28;20037;-45
2022/07/16 10:44:18;;;;;;;5.00;1.98;;;23.80;45.80;;;;;;5002196;28;20532;-44
2022/07/16 10:46:58;;;;;;;4.78;1.83;;;23.80;46.60;;;;;;4999320;28;20595;-45
2022/07/16 10:49:26;;;;;;;5.55;2.45;;;23.80;46.90;;;;;;5002403;28;20441;-45
2022/07/16 10:52:05;;;;;;;3.67;2.20;;;23.80;47.30;;;;;;5003777;28;20026;-45
2022/07/16 10:54:50;;;;;;;4.57;2.10;;;23.90;47.60;;;;;;5004189;28;20585;-45
2022/07/16 10:57:17;;;;;;;4.97;1.98;;;23.90;47.60;;;;;;4984417;28;20077;-44
2022/07/16 10:59:48;;;;;;;4.15;2.13;;;23.90;47.70;;;;;;4983759;28;20057;-45
2022/07/16 11:02:16;;;;;;;4.22;2.05;;;23.90;47.70;;;;;;4984589;28;20034;-45
2022/07/16 11:04:45;;;;;;;3.67;1.90;;;23.90;47.70;;;;;;4988286;28;20105;-46
2022/07/16 11:07:22;;;;;;;4.45;2.15;;;23.90;47.80;;;;;;5017486;28;20116;-46
2022/07/16 11:09:52;;;;;;;5.03;1.80;;;23.90;48.10;;;;;;5015374;28;20029;-45
2022/07/16 11:12:21;;;;;;;3.80;1.77;;;23.90;47.80;;;;;;5003939;28;20053;-45
2022/07/16 11:14:49;;;;;;;3.75;1.85;;;23.90;47.80;;;;;;5003415;28;20100;-45
2022/07/16 11:17:17;;;;;;;6.20;2.38;;;24.00;47.80;;;;;;5003201;28;20026;-46
2022/07/16 11:19:48;;;;;;;4.82;2.20;;;24.00;47.90;;;;;;5009486;28;20028;-45
2022/07/16 11:22:22;;;;;;;4.25;2.05;;;24.00;47.90;;;;;;5003203;28;20026;-45
2022/07/16 11:24:51;;;;;;;3.92;1.75;;;24.00;47.80;;;;;;5002780;28;20026;-45
2022/07/16 11:27:18;;;;;;;4.50;1.95;;;24.00;47.90;;;;;;5002747;28;20030;-45
2022/07/16 11:29:44;;;;;;;4.85;2.00;;;24.00;47.90;;;;;;5003504;28;20080;-46
2022/07/16 11:32:14;;;;;;;3.13;1.83;;;24.00;48.00;;;;;;5003519;28;20381;-46
2022/07/16 11:34:40;;;;;;;3.17;1.65;;;24.00;47.90;;;;;;5003399;28;20083;-45
2022/07/16 11:37:06;;;;;;;3.55;1.83;;;24.00;48.00;;;;;;5003130;28;20029;-46
2022/07/16 11:39:31;;;;;;;5.25;1.92;;;24.00;48.00;;;;;;5004147;28;20100;-46
2022/07/16 11:41:58;;;;;;;3.45;1.80;;;24.00;48.00;;;;;;5003689;28;20025;-46
2022/07/16 11:44:27;;;;;;;3.45;1.80;;;24.00;48.00;;;;;;5003870;28;20419;-46
2022/07/16 11:47:01;;;;;;;5.07;2.17;;;24.10;48.00;;;;;;5035367;28;20062;-45
2022/07/16 11:49:38;;;;;;;4.18;2.03;;;24.10;48.00;;;;;;5002393;28;20057;-46
2022/07/16 11:52:26;;;;;;;3.25;1.73;;;24.10;48.10;;;;;;5003238;28;20026;-45
2022/07/16 11:54:56;;;;;;;3.63;1.70;;;24.10;48.00;;;;;;5003772;28;20105;-45
2022/07/16 11:57:22;;;;;;;3.00;1.52;;;24.10;48.00;;;;;;5023310;28;20721;-45
2022/07/16 11:59:52;;;;;;;3.95;1.50;;;24.10;48.00;;;;;;5014080;28;20042;-45
2022/07/16 12:02:21;;;;;;;3.53;1.70;;;24.10;48.00;;;;;;5006889;28;20030;-45
2022/07/16 12:04:50;;;;;;;3.55;1.67;;;24.20;48.00;;;;;;5007005;28;20022;-46
2022/07/16 12:07:33;;;;;;;3.60;1.80;;;24.10;48.00;;;;;;5006552;28;20026;-45
2022/07/16 12:10:02;;;;;;;3.90;1.80;;;24.20;48.00;;;;;;5007265;28;20643;-45
2022/07/16 12:12:30;;;;;;;4.97;2.00;;;24.20;48.00;;;;;;5007066;28;20105;-46
2022/07/16 12:15:15;;;;;;;3.53;1.58;;;24.20;48.10;;;;;;5006937;28;20025;-45
2022/07/16 12:17:45;;;;;;;3.70;1.70;;;24.20;48.10;;;;;;5006805;28;20026;-45
2022/07/16 12:20:23;;;;;;;5.13;2.17;;;24.20;48.00;;;;;;5006256;28;20033;-46
2022/07/16 12:22:51;;;;;;;3.72;1.67;;;24.20;48.10;;;;;;5006388;28;20030;-46
2022/07/16 12:25:27;;;;;;;3.95;1.63;;;24.20;48.10;;;;;;5011875;28;20026;-45
2022/07/16 12:28:10;;;;;;;3.00;1.55;;;24.30;48.20;;;;;;5026073;28;20489;-46
2022/07/16 12:30:38;;;;;;;;;;;24.30;48.10;;;;;;5026605;28;20022;-45
2022/07/16 12:33:07;;;;;;;3.00;1.40;;;24.30;48.10;;;;;;5026692;28;19992;-46
2022/07/16 12:35:47;;;;;;;4.88;1.90;;;24.30;48.10;;;;;;5015087;28;20033;-45
2022/07/16 12:38:37;;;;;;;3.30;1.70;;;24.30;48.10;;;;;;5006473;28;20061;-45
2022/07/16 12:41:05;;;;;;;3.40;1.38;;;24.30;48.10;;;;;;5006937;28;20072;-46
2022/07/16 12:43:32;;;;;;;3.70;1.42;;;24.40;48.00;;;;;;5006348;28;20541;-45
2022/07/16 12:46:03;;;;;;;4.18;1.58;;;24.40;47.90;;;;;;5005871;28;20120;-46
2022/07/16 12:48:29;;;;;;;7.93;2.20;;;24.40;48.00;;;;;;5004107;28;20172;-47
2022/07/16 12:50:55;;;;;;;4.82;2.05;;;24.40;48.70;;;;;;4995041;28;20027;-45
2022/07/16 12:53:21;;;;;;;3.22;1.42;;;24.40;48.50;;;;;;4995712;28;20026;-44
2022/07/16 12:58:49;;;;;;;4.72;1.77;;;24.40;48.10;;;;;;5001587;28;20555;-45
2022/07/16 13:01:19;;;;;;;3.28;1.40;;;24.40;48.00;;;;;;5001460;28;20032;-44